Time;durP1;ratioP1;P1;durP2;ratioP2;P2;SDS_P1;SDS_P2;PMS_P1;PMS_P2;Temp;Humidity;BMP_temperature;BMP_pressure;BME280_temperature;BME280_humidity;BME280_pressure;Samples;Min_cycle;Max_cycle;Signal;HPM_P1;HPM_P2
2022/03/23 00:00:23;;;;;;;28.48;17.58;;;;;;;9.89;35.77;102943.09;5068150;28;20078;-61
2022/03/23 00:02:49;;;;;;;30.35;17.27;;;;;;;9.84;35.90;102948.44;5067967;28;20044;-61
2022/03/23 00:05:18;;;;;;;26.05;15.93;;;;;;;9.76;36.17;102950.31;5068646;28;20079;-61
2022/03/23 00:07:44;;;;;;;31.17;16.42;;;;;;;9.68;36.43;102954.84;5068332;28;20053;-62
2022/03/23 00:10:11;;;;;;;25.45;16.05;;;;;;;9.64;36.37;102949.63;5068190;28;20137;-61
2022/03/23 00:12:42;;;;;;;29.58;16.58;;;;;;;9.60;36.54;102947.97;5069420;28;20139;-61
2022/03/23 00:15:10;;;;;;;28.25;17.05;;;;;;;9.66;36.50;102946.13;5071657;28;20591;-62
2022/03/23 00:17:37;;;;;;;30.67;18.02;;;;;;;9.67;36.18;102940.00;5075139;28;20106;-62
2022/03/23 00:20:04;;;;;;;28.13;17.17;;;;;;;9.64;36.23;102943.53;5074766;28;20439;-61
2022/03/23 00:22:31;;;;;;;28.13;17.02;;;;;;;9.56;36.28;102941.03;5075079;28;20048;-64
2022/03/23 00:24:58;;;;;;;28.77;17.30;;;;;;;9.53;36.50;102942.84;5075151;28;20114;-61
2022/03/23 00:27:25;;;;;;;26.65;17.40;;;;;;;9.50;36.36;102935.91;5075152;28;20044;-61
2022/03/23 00:29:51;;;;;;;31.23;17.65;;;;;;;9.48;36.34;102935.06;5075284;28;20101;-63
2022/03/23 00:32:18;;;;;;;28.98;17.63;;;;;;;9.41;36.38;102931.69;5074757;28;20052;-61
2022/03/23 00:34:45;;;;;;;27.65;17.40;;;;;;;9.37;36.28;102937.88;5074930;28;20105;-62
2022/03/23 00:37:11;;;;;;;32.10;16.83;;;;;;;9.35;36.25;102938.78;5074470;28;20044;-61
2022/03/23 00:39:38;;;;;;;25.67;17.55;;;;;;;9.34;35.89;102927.41;5074803;28;20071;-61
2022/03/23 00:42:05;;;;;;;26.98;18.33;;;;;;;9.30;36.04;102934.47;5074752;28;20056;-62
2022/03/23 00:44:31;;;;;;;26.55;18.05;;;;;;;9.29;36.01;102931.88;5074937;28;20044;-62
2022/03/23 00:46:58;;;;;;;26.70;17.35;;;;;;;9.27;35.90;102931.03;5074803;28;20045;-62
2022/03/23 00:49:24;;;;;;;31.60;18.05;;;;;;;9.23;35.86;102929.34;5083159;28;20412;-61
2022/03/23 00:51:53;;;;;;;29.50;18.08;;;;;;;9.21;35.97;102925.91;5074503;28;20535;-62
2022/03/23 00:54:21;;;;;;;29.83;17.15;;;;;;;9.20;35.80;102927.63;5084584;28;20048;-62
2022/03/23 00:56:50;;;;;;;29.48;18.77;;;;;;;9.21;35.72;102926.75;5094599;28;20048;-62
2022/03/23 00:59:22;;;;;;;27.67;17.77;;;;;;;9.23;35.56;102922.38;5082161;28;20051;-61
2022/03/23 01:01:49;;;;;;;27.20;17.42;;;;;;;9.23;35.51;102913.63;5078995;28;20044;-62
2022/03/23 01:04:16;;;;;;;29.23;17.27;;;;;;;9.22;35.25;102912.78;5074305;28;20489;-65
2022/03/23 01:06:42;;;;;;;27.27;17.88;;;;;;;9.23;35.32;102919.75;5074329;28;20098;-61
2022/03/23 01:09:09;;;;;;;25.35;16.88;;;;;;;9.21;35.53;102912.81;5074123;28;20040;-65
2022/03/23 01:11:37;;;;;;;29.65;18.50;;;;;;;9.12;35.36;102904.19;5074302;28;20048;-61
2022/03/23 01:14:05;;;;;;;27.73;17.23;;;;;;;9.11;35.41;102905.06;5074108;28;20090;-61
2022/03/23 01:16:32;;;;;;;27.88;18.75;;;;;;;9.08;35.66;102907.75;5073900;28;20089;-61
2022/03/23 01:18:59;;;;;;;27.02;17.25;;;;;;;9.04;35.71;102900.84;5074181;28;20053;-65
2022/03/23 01:21:26;;;;;;;28.30;18.27;;;;;;;9.01;35.80;102900.00;5073874;28;20056;-62
2022/03/23 01:23:53;;;;;;;40.20;18.08;;;;;;;8.94;35.88;102896.63;5073988;28;20102;-61
2022/03/23 01:26:19;;;;;;;28.52;17.90;;;;;;;8.91;36.11;102899.28;5080844;28;20109;-62
2022/03/23 01:28:46;;;;;;;28.77;18.30;;;;;;;8.85;36.33;102900.25;5093965;28;20105;-62
2022/03/23 01:31:14;;;;;;;27.92;17.42;;;;;;;8.87;36.40;102898.44;5094101;28;20452;-63
2022/03/23 01:33:40;;;;;;;28.33;17.65;;;;;;;8.87;36.56;102890.59;5093953;28;20052;-61
2022/03/23 01:36:07;;;;;;;26.50;18.10;;;;;;;8.90;36.70;102894.91;5093925;28;20044;-62
2022/03/23 01:38:40;;;;;;;27.88;17.92;;;;;;;8.89;37.07;102894.06;5093945;28;20052;-65
2022/03/23 01:41:19;;;;;;;26.17;17.33;;;;;;;8.86;37.63;102895.84;5087386;28;20041;-65
2022/03/23 01:43:57;;;;;;;32.42;16.92;;;;;;;8.82;38.03;102887.19;5087727;28;20059;-65
2022/03/23 01:46:28;;;;;;;30.60;17.75;;;;;;;8.77;38.28;102892.50;5093486;28;20079;-65
2022/03/23 01:48:55;;;;;;;30.92;18.27;;;;;;;8.73;38.69;102887.31;5093980;28;20101;-64
2022/03/23 01:51:22;;;;;;;28.33;17.85;;;;;;;8.66;38.96;102887.41;5093696;28;20044;-61
2022/03/23 01:53:48;;;;;;;34.88;18.25;;;;;;;8.60;39.24;102891.88;5093763;28;20114;-65
2022/03/23 01:56:15;;;;;;;27.83;17.67;;;;;;;8.63;39.04;102891.81;5093731;28;20048;-61
2022/03/23 01:58:42;;;;;;;26.13;17.42;;;;;;;8.65;39.22;102884.81;5091412;28;20176;-61
2022/03/23 02:01:09;;;;;;;26.02;17.55;;;;;;;8.64;39.15;102883.94;5073174;28;20045;-63
2022/03/23 02:03:36;;;;;;;29.65;18.27;;;;;;;8.64;39.36;102888.31;5073300;28;20041;-61
2022/03/23 02:06:03;;;;;;;27.90;17.88;;;;;;;8.66;39.25;102887.41;5073404;28;20044;-61
2022/03/23 02:08:30;;;;;;;25.40;17.40;;;;;;;8.63;39.21;102890.06;5073027;28;20095;-62
2022/03/23 02:10:57;;;;;;;28.08;17.23;;;;;;;8.61;39.09;102876.13;5073204;28;20045;-62
2022/03/23 02:13:23;;;;;;;28.95;16.60;;;;;;;8.60;38.82;102882.25;5072691;28;20492;-64
2022/03/23 02:15:50;;;;;;;26.58;16.42;;;;;;;8.65;38.64;102884.81;5072322;28;20489;-61
2022/03/23 02:18:17;;;;;;;26.35;15.88;;;;;;;8.63;38.42;102879.63;5072851;28;20056;-61
2022/03/23 02:20:44;;;;;;;27.90;15.77;;;;;;;8.61;38.23;102880.53;5072906;28;20135;-61
2022/03/23 02:23:12;;;;;;;28.73;16.98;;;;;;;8.58;38.01;102876.19;5073001;28;20052;-65
2022/03/23 02:25:40;;;;;;;24.08;16.67;;;;;;;8.52;37.86;102876.28;5072801;28;20056;-61
2022/03/23 02:28:07;;;;;;;27.70;17.50;;;;;;;8.42;38.04;102872.88;5072912;28;20048;-62
2022/03/23 02:30:34;;;;;;;27.25;16.30;;;;;;;8.34;37.87;102875.59;5072770;28;20412;-65
2022/03/23 02:33:01;;;;;;;24.38;16.17;;;;;;;8.31;38.03;102872.16;5072457;28;20054;-64
2022/03/23 02:35:28;;;;;;;23.85;16.10;;;;;;;8.37;37.72;102871.19;5072205;28;20075;-61
2022/03/23 02:37:54;;;;;;;28.60;16.75;;;;;;;8.35;37.71;102871.22;5072700;28;20084;-62
2022/03/23 02:40:21;;;;;;;25.17;15.90;;;;;;;8.34;37.58;102875.59;5072806;28;20551;-62
2022/03/23 02:42:47;;;;;;;23.38;16.35;;;;;;;8.31;37.64;102872.16;5072606;28;20064;-61
2022/03/23 02:45:14;;;;;;;25.95;16.88;;;;;;;8.29;37.48;102868.66;5072572;28;20048;-61
2022/03/23 02:47:42;;;;;;;27.13;16.17;;;;;;;8.25;37.64;102875.72;5072320;28;20189;-61
2022/03/23 02:50:09;;;;;;;23.52;15.85;;;;;;;8.25;37.45;102870.50;5083545;28;20070;-63
2022/03/23 03:01:51;;;;;;;22.88;15.27;;;;;;;8.27;37.44;102868.69;5092498;28;20047;-61
2022/03/23 03:04:14;;;;;;;22.63;15.15;;;;;;;8.13;38.19;102868.00;5092540;28;20050;-61
2022/03/23 03:06:41;;;;;;;23.00;16.33;;;;;;;8.05;38.44;102873.34;5077283;28;20489;-61
2022/03/23 03:09:07;;;;;;;30.08;17.42;;;;;;;8.01;38.76;102869.88;5072292;28;20559;-62
2022/03/23 03:11:34;;;;;;;28.33;16.48;;;;;;;8.00;38.79;102870.75;5072244;28;20045;-61
2022/03/23 03:14:01;;;;;;;25.08;17.48;;;;;;;7.99;39.13;102866.41;5072291;28;20053;-63
2022/03/23 03:16:28;;;;;;;27.40;17.83;;;;;;;7.97;39.13;102873.44;5071950;28;20052;-65
2022/03/23 03:18:54;;;;;;;30.08;17.73;;;;;;;7.98;39.18;102866.44;5072317;28;20044;-61
2022/03/23 03:21:21;;;;;;;27.45;16.92;;;;;;;7.93;39.27;102868.25;5072051;28;20048;-62
2022/03/23 03:23:48;;;;;;;24.88;16.05;;;;;;;7.94;39.53;102868.22;5072087;28;20131;-61
2022/03/23 03:26:16;;;;;;;26.67;17.77;;;;;;;7.96;39.16;102865.56;5072209;28;20098;-62
2022/03/23 03:28:44;;;;;;;28.08;16.85;;;;;;;7.90;39.33;102870.88;5072061;28;20056;-61
2022/03/23 03:31:12;;;;;;;25.10;15.90;;;;;;;7.91;39.25;102875.22;5072342;28;20044;-61
2022/03/23 03:33:39;;;;;;;24.33;15.82;;;;;;;7.88;39.23;102870.88;5071808;28;20093;-62
2022/03/23 03:36:06;;;;;;;24.38;16.80;;;;;;;7.89;39.35;102877.00;5072014;28;20048;-61
2022/03/23 03:38:34;;;;;;;26.02;17.27;;;;;;;7.81;39.60;102874.47;5078903;28;20396;-61
2022/03/23 03:41:02;;;;;;;26.65;17.73;;;;;;;7.83;39.56;102873.56;5092029;28;20044;-61
2022/03/23 03:43:30;;;;;;;28.48;17.98;;;;;;;7.82;39.60;102882.28;5092122;28;20139;-61
2022/03/23 03:45:57;;;;;;;26.95;17.48;;;;;;;7.81;39.63;102885.78;5092260;28;20248;-61
2022/03/23 03:48:24;;;;;;;25.65;16.27;;;;;;;7.82;39.61;102874.47;5094554;28;20045;-62
2022/03/23 03:50:52;;;;;;;26.10;16.40;;;;;;;7.75;39.67;102878.00;5096187;28;20126;-62
2022/03/23 03:53:18;;;;;;;26.48;17.58;;;;;;;7.76;39.63;102871.06;5096002;28;20075;-61
2022/03/23 03:55:51;;;;;;;27.80;18.85;;;;;;;7.77;39.54;102880.59;5076047;28;20561;-61
2022/03/23 03:58:18;;;;;;;29.05;18.52;;;;;;;7.78;39.45;102879.72;5075583;28;20048;-61
2022/03/23 04:00:45;;;;;;;25.48;17.33;;;;;;;7.81;39.50;102884.94;5075621;28;20497;-61
2022/03/23 04:03:12;;;;;;;29.63;18.85;;;;;;;7.79;39.51;102878.84;5081397;28;20044;-61
2022/03/23 04:05:39;;;;;;;30.08;18.70;;;;;;;7.76;39.68;102878.88;5091425;28;20056;-61
2022/03/23 04:08:06;;;;;;;25.92;17.30;;;;;;;7.71;39.66;102875.44;5092464;28;20044;-61
2022/03/23 04:10:33;;;;;;;31.17;18.98;;;;;;;7.65;40.01;102872.00;5090647;28;20097;-61
2022/03/23 04:12:59;;;;;;;30.38;18.42;;;;;;;7.63;40.02;102878.13;5072160;28;20052;-61
2022/03/23 04:15:26;;;;;;;36.20;19.20;;;;;;;7.59;40.18;102877.31;5071890;28;20125;-61
2022/03/23 04:17:54;;;;;;;33.55;17.55;;;;;;;7.54;40.18;102878.22;5071748;28;20090;-62
2022/03/23 04:20:22;;;;;;;30.58;17.38;;;;;;;7.48;40.72;102880.00;5071998;28;20102;-62
2022/03/23 04:22:49;;;;;;;27.80;18.35;;;;;;;7.51;40.55;102885.19;5071948;28;20408;-61
2022/03/23 04:25:16;;;;;;;32.55;19.65;;;;;;;7.46;41.19;102884.38;5071874;28;20562;-62
2022/03/23 04:27:51;;;;;;;30.13;18.67;;;;;;;7.44;41.70;102880.91;5073053;28;20044;-62
2022/03/23 04:30:20;;;;;;;27.83;18.58;;;;;;;7.39;42.39;102876.59;5092262;28;20102;-61
2022/03/23 04:32:49;;;;;;;29.95;18.48;;;;;;;7.42;42.46;102876.59;5092003;28;20048;-61
2022/03/23 04:35:17;;;;;;;30.00;19.73;;;;;;;7.39;42.64;102876.59;5091786;28;20044;-62
2022/03/23 04:37:44;;;;;;;40.83;19.70;;;;;;;7.33;42.81;102885.38;5091688;28;20109;-61
2022/03/23 04:40:14;;;;;;;45.53;21.40;;;;;;;7.30;42.59;102885.38;5091712;28;20044;-61
2022/03/23 04:42:41;;;;;;;44.13;19.98;;;;;;;7.26;42.92;102887.19;5090328;28;20052;-61
2022/03/23 04:45:09;;;;;;;40.33;20.55;;;;;;;7.24;42.65;102890.66;5077284;28;20596;-62
2022/03/23 04:47:39;;;;;;;38.53;20.50;;;;;;;7.24;42.47;102893.25;5071534;28;20118;-62
2022/03/23 04:50:08;;;;;;;33.33;18.77;;;;;;;7.14;42.61;102888.13;5071643;28;20078;-65
2022/03/23 04:52:36;;;;;;;33.58;18.83;;;;;;;7.07;42.74;102896.00;5071247;28;20059;-61
2022/03/23 04:55:03;;;;;;;9.93;5.60;;;;;;;8.01;42.46;102887.31;5071436;28;20142;-61
2022/03/23 04:57:30;;;;;;;39.75;18.95;;;;;;;8.11;43.58;102888.06;5071111;28;20102;-62
2022/03/23 04:59:59;;;;;;;47.78;20.73;;;;;;;7.70;43.85;102895.47;5070919;28;20098;-61
2022/03/23 05:02:26;;;;;;;32.72;18.55;;;;;;;7.48;43.60;102885.22;5071110;28;20089;-62
2022/03/23 05:04:53;;;;;;;37.97;18.42;;;;;;;7.32;43.36;102896.69;5071369;28;20448;-61
2022/03/23 05:07:20;;;;;;;27.33;17.10;;;;;;;7.22;43.13;102892.44;5071292;28;20098;-61
2022/03/23 05:09:46;;;;;;;27.85;17.13;;;;;;;7.18;43.05;102895.03;5070942;28;20476;-62
2022/03/23 05:12:13;;;;;;;33.60;17.95;;;;;;;7.19;42.68;102895.94;5071237;28;20087;-64
2022/03/23 05:14:40;;;;;;;32.78;18.33;;;;;;;7.17;42.55;102903.78;5070440;28;20064;-62
2022/03/23 05:17:07;;;;;;;31.05;19.52;;;;;;;7.20;42.49;102905.50;5070827;28;20052;-62
2022/03/23 05:19:35;;;;;;;31.35;18.77;;;;;;;7.22;42.55;102906.34;5070792;28;20048;-62
2022/03/23 05:22:03;;;;;;;26.25;18.38;;;;;;;7.24;42.71;102907.19;5070615;28;20075;-61
2022/03/23 05:24:30;;;;;;;35.20;18.50;;;;;;;7.23;42.81;102902.84;5070658;28;20045;-61
2022/03/23 05:26:57;;;;;;;34.03;18.08;;;;;;;7.19;42.88;102906.38;5070996;28;20108;-62
2022/03/23 05:29:23;;;;;;;29.60;18.15;;;;;;;7.14;42.86;102895.09;5070730;28;20072;-63
2022/03/23 05:31:50;;;;;;;29.83;17.67;;;;;;;7.12;42.88;102899.44;5070660;28;20459;-63
2022/03/23 05:34:17;;;;;;;32.10;18.95;;;;;;;7.10;43.16;102899.47;5070149;28;20056;-62
2022/03/23 05:36:43;;;;;;;33.78;19.77;;;;;;;7.17;43.21;102902.91;5070277;28;20456;-62
2022/03/23 05:39:10;;;;;;;33.65;19.17;;;;;;;7.21;43.10;102907.22;5070635;28;20409;-61
2022/03/23 05:41:37;;;;;;;33.35;17.92;;;;;;;7.23;43.15;102907.22;5070647;28;20044;-61
2022/03/23 05:44:04;;;;;;;34.47;18.98;;;;;;;7.25;42.96;102910.66;5070479;28;20048;-62
2022/03/23 05:46:31;;;;;;;35.75;19.40;;;;;;;7.35;42.94;102913.22;5070150;28;20044;-64
2022/03/23 05:48:58;;;;;;;38.15;19.83;;;;;;;7.42;42.62;102911.41;5070303;28;20143;-61
2022/03/23 05:51:24;;;;;;;33.47;21.17;;;;;;;7.47;42.87;102916.59;5079055;28;20055;-61
2022/03/23 05:53:51;;;;;;;35.42;20.10;;;;;;;7.52;42.76;102907.81;5069803;28;20173;-61
2022/03/23 05:56:18;;;;;;;36.53;20.65;;;;;;;7.54;42.75;102907.81;5069911;28;20040;-61
2022/03/23 05:58:44;;;;;;;61.13;23.58;;;;;;;7.58;43.19;102909.53;5069902;28;20048;-61
2022/03/23 06:01:11;;;;;;;40.55;21.48;;;;;;;7.59;43.25;102907.78;5070178;28;20048;-61
2022/03/23 06:03:38;;;;;;;35.97;19.92;;;;;;;7.59;43.24;102916.50;5075088;28;20119;-61
2022/03/23 06:06:05;;;;;;;33.25;20.75;;;;;;;7.61;43.15;102917.34;5089835;28;20040;-61
2022/03/23 06:08:31;;;;;;;30.80;19.90;;;;;;;7.67;43.26;102916.44;5089862;28;20097;-61
2022/03/23 06:10:58;;;;;;;35.53;20.10;;;;;;;7.68;43.28;102920.75;5069984;28;20105;-61
2022/03/23 06:13:25;;;;;;;30.42;21.15;;;;;;;7.75;43.11;102916.34;5069447;28;20138;-61
2022/03/23 06:15:51;;;;;;;35.08;21.45;;;;;;;7.73;42.97;102924.19;5069694;28;20052;-62
2022/03/23 06:18:18;;;;;;;38.38;20.73;;;;;;;7.76;42.85;102923.31;5069571;28;20528;-61
2022/03/23 06:20:45;;;;;;;31.98;20.40;;;;;;;7.73;43.06;102929.41;5069714;28;20095;-62
2022/03/23 06:23:13;;;;;;;28.85;20.17;;;;;;;7.73;43.16;102929.41;5073900;28;20407;-61
2022/03/23 06:25:39;;;;;;;35.20;21.27;;;;;;;7.79;42.86;102929.34;5076508;28;20076;-61
2022/03/23 06:28:06;;;;;;;33.08;20.83;;;;;;;7.76;42.85;102931.16;5076501;28;20491;-61
2022/03/23 06:30:34;;;;;;;32.50;21.50;;;;;;;7.76;43.10;102923.31;5089846;28;20059;-61
2022/03/23 06:33:02;;;;;;;35.20;21.05;;;;;;;7.79;43.32;102931.97;5089769;28;20048;-61
2022/03/23 06:35:30;;;;;;;33.40;21.60;;;;;;;7.79;43.23;102928.50;5089539;28;20073;-61
2022/03/23 06:37:56;;;;;;;34.95;20.58;;;;;;;7.88;43.36;102920.56;5089532;28;20097;-61
2022/03/23 06:40:24;;;;;;;38.35;21.50;;;;;;;7.93;43.38;102925.75;5089685;28;20055;-61
2022/03/23 06:42:51;;;;;;;33.70;21.75;;;;;;;7.97;43.45;102920.50;5069875;28;20044;-62
2022/03/23 06:45:18;;;;;;;31.30;21.33;;;;;;;8.08;43.31;102920.34;5087496;28;20101;-61
2022/03/23 06:47:45;;;;;;;32.45;21.10;;;;;;;8.18;43.43;102921.97;5089168;28;20063;-61
2022/03/23 06:50:12;;;;;;;41.80;21.70;;;;;;;8.20;43.59;102928.94;5089429;28;20484;-61
2022/03/23 06:52:38;;;;;;;35.22;22.30;;;;;;;8.28;43.38;102921.91;5089115;28;20044;-65
2022/03/23 06:55:06;;;;;;;37.75;22.63;;;;;;;8.50;43.01;102928.59;5089258;28;20073;-63
2022/03/23 06:57:32;;;;;;;35.30;23.25;;;;;;;8.70;42.68;102929.22;5084936;28;20123;-63
2022/03/23 06:59:59;;;;;;;36.17;22.75;;;;;;;8.80;42.78;102926.47;5068898;28;20436;-63
2022/03/23 07:02:26;;;;;;;38.45;22.42;;;;;;;8.98;42.67;102927.09;5082879;28;20040;-63
2022/03/23 07:04:52;;;;;;;43.03;23.45;;;;;;;9.33;42.17;102928.31;5078336;28;20048;-63
2022/03/23 07:07:20;;;;;;;39.20;23.48;;;;;;;9.55;41.90;102933.19;5086005;28;20082;-63
2022/03/23 07:09:46;;;;;;;34.25;22.02;;;;;;;9.78;41.60;102922.31;5071760;28;20101;-66
2022/03/23 07:12:13;;;;;;;39.78;22.55;;;;;;;9.92;41.48;102925.53;5071055;28;20458;-63
2022/03/23 07:14:41;;;;;;;37.40;23.23;;;;;;;10.12;41.30;102924.31;5081388;28;20711;-63
2022/03/23 07:17:08;;;;;;;34.30;21.98;;;;;;;10.35;41.04;102925.59;5068959;28;20485;-62
2022/03/23 07:19:35;;;;;;;39.10;24.23;;;;;;;10.37;41.27;102927.31;5083916;28;20484;-62
2022/03/23 07:22:02;;;;;;;35.30;22.42;;;;;;;10.64;40.55;102924.16;5091886;28;20044;-62
2022/03/23 07:24:28;;;;;;;33.25;21.60;;;;;;;10.85;40.24;102928.91;5091954;28;20089;-62
2022/03/23 07:26:55;;;;;;;39.83;20.70;;;;;;;11.07;39.77;102913.53;5094997;28;20048;-63
2022/03/23 07:29:42;;;;;;;33.60;21.27;;;;;;;11.15;39.91;102921.25;5093119;28;20139;-64
2022/03/23 07:32:09;;;;;;;51.85;22.27;;;;;;;11.28;39.49;102920.03;5090271;28;20048;-64
2022/03/23 07:34:36;;;;;;;37.67;19.85;;;;;;;11.49;39.22;102917.78;5092385;28;20083;-61
2022/03/23 07:37:02;;;;;;;35.60;21.00;;;;;;;11.98;38.35;102913.00;5095523;28;20048;-63
2022/03/23 07:39:29;;;;;;;32.92;20.08;;;;;;;12.04;38.14;102912.84;5095114;28;20480;-62
2022/03/23 07:41:56;;;;;;;26.67;17.88;;;;;;;12.18;37.75;102909.81;5095490;28;20786;-64
2022/03/23 07:44:23;;;;;;;30.80;18.05;;;;;;;12.31;37.34;102912.94;5095364;28;20134;-64
2022/03/23 07:46:50;;;;;;;27.67;18.73;;;;;;;12.43;37.06;102909.13;5095509;28;20047;-65
2022/03/23 07:49:16;;;;;;;32.65;18.20;;;;;;;12.57;36.64;102913.97;5095539;28;20477;-65
2022/03/23 07:51:43;;;;;;;29.55;17.85;;;;;;;12.57;36.24;102911.34;5076659;28;20512;-64
2022/03/23 07:54:10;;;;;;;24.67;17.15;;;;;;;12.82;35.84;102913.19;5084003;28;20063;-64
2022/03/23 07:56:36;;;;;;;30.58;18.08;;;;;;;12.94;35.53;102918.09;5095244;28;20119;-65
2022/03/23 07:59:03;;;;;;;28.05;16.25;;;;;;;13.07;35.03;102910.66;5095550;28;20052;-64
2022/03/23 08:01:30;;;;;;;24.33;14.73;;;;;;;13.32;34.21;102915.09;5094829;28;20052;-70
2022/03/23 08:03:57;;;;;;;21.52;14.68;;;;;;;13.49;33.59;102917.22;5095353;28;20048;-63
2022/03/23 08:06:26;;;;;;;25.55;14.98;;;;;;;13.69;33.04;102920.03;5089736;28;20462;-67
2022/03/23 08:08:53;;;;;;;22.42;13.43;;;;;;;13.79;32.52;102912.66;5090961;28;20040;-63
2022/03/23 08:11:19;;;;;;;25.75;15.38;;;;;;;13.93;32.13;102906.91;5094638;28;20048;-69
2022/03/23 08:13:46;;;;;;;22.33;14.57;;;;;;;14.01;31.90;102906.59;5094220;28;20043;-64
2022/03/23 08:16:13;;;;;;;24.67;15.70;;;;;;;14.17;31.21;102907.78;5092723;28;20105;-64
2022/03/23 08:18:40;;;;;;;23.20;14.38;;;;;;;14.31;30.95;102909.91;5092557;28;20040;-64
2022/03/23 08:21:06;;;;;;;23.50;14.30;;;;;;;14.60;30.34;102907.94;5094046;28;20036;-64
2022/03/23 08:23:33;;;;;;;23.98;15.20;;;;;;;14.76;30.05;102910.84;5091265;28;20071;-64
2022/03/23 08:26:00;;;;;;;23.98;15.05;;;;;;;14.86;30.01;102908.69;5093851;28;20048;-67
2022/03/23 08:28:26;;;;;;;22.33;16.35;;;;;;;14.92;29.56;102916.38;5093800;28;20101;-63
2022/03/23 08:30:53;;;;;;;24.50;16.23;;;;;;;15.08;29.40;102907.81;5093635;28;20556;-65
2022/03/23 08:33:22;;;;;;;24.90;16.40;;;;;;;15.27;29.39;102915.88;5092291;28;20056;-66
2022/03/23 08:35:48;;;;;;;17.55;12.15;;;;;;;15.38;29.04;102912.78;5090493;28;20052;-64
2022/03/23 08:38:15;;;;;;;18.80;12.50;;;;;;;15.54;28.31;102908.56;5088818;28;20097;-64
2022/03/23 08:40:41;;;;;;;17.33;12.68;;;;;;;15.77;27.49;102904.03;5087720;28;20093;-66
2022/03/23 08:43:08;;;;;;;14.75;11.43;;;;;;;15.83;27.10;102911.72;5091170;28;20478;-65
2022/03/23 08:45:35;;;;;;;16.98;11.75;;;;;;;15.91;27.02;102903.44;5091157;28;20471;-65
2022/03/23 08:48:03;;;;;;;20.52;11.80;;;;;;;16.05;26.36;102903.69;5090541;28;20048;-65
2022/03/23 08:50:30;;;;;;;19.42;12.60;;;;;;;16.29;25.83;102896.41;5090761;28;20109;-65
2022/03/23 08:52:57;;;;;;;21.05;14.05;;;;;;;16.41;25.88;102904.72;5091249;28;20412;-65
2022/03/23 08:55:30;;;;;;;22.00;13.32;;;;;;;16.67;25.88;102892.91;5091326;28;20048;-65
2022/03/23 08:57:58;;;;;;;18.55;13.75;;;;;;;16.79;25.87;102900.22;5087660;28;20048;-71
2022/03/23 09:00:25;;;;;;;18.83;13.63;;;;;;;16.93;25.76;102896.94;5090623;28;20109;-65
2022/03/23 09:02:52;;;;;;;19.50;12.18;;;;;;;17.04;25.26;102901.72;5090943;28;20040;-66
2022/03/23 09:05:19;;;;;;;17.55;11.10;;;;;;;17.22;25.10;102904.41;5090631;28;20093;-65
2022/03/23 09:07:46;;;;;;;16.65;12.40;;;;;;;17.36;24.66;102891.28;5089135;28;20052;-65
2022/03/23 09:10:14;;;;;;;16.52;11.93;;;;;;;17.52;24.11;102891.38;5087699;28;20055;-65
2022/03/23 09:12:43;;;;;;;16.85;10.85;;;;;;;17.73;23.50;102894.69;5089965;28;20511;-65
2022/03/23 09:15:12;;;;;;;15.30;11.98;;;;;;;17.87;23.34;102891.28;5086460;28;20068;-65
2022/03/23 09:17:39;;;;;;;15.43;11.60;;;;;;;18.11;23.03;102890.94;5090203;28;20048;-66
2022/03/23 09:20:07;;;;;;;17.17;11.55;;;;;;;18.28;22.67;102893.56;5089168;28;20047;-65
2022/03/23 09:22:37;;;;;;;17.02;11.48;;;;;;;18.43;22.24;102891.81;5090133;28;20040;-65
2022/03/23 09:25:06;;;;;;;19.55;12.10;;;;;;;18.60;22.62;102888.22;5090293;28;20090;-66
2022/03/23 09:27:34;;;;;;;14.63;11.23;;;;;;;18.79;22.45;102886.31;5087831;28;20040;-65
2022/03/23 09:30:02;;;;;;;16.73;11.70;;;;;;;18.95;22.33;102889.00;5085606;28;20169;-65
2022/03/23 09:32:29;;;;;;;12.15;9.40;;;;;;;19.01;22.03;102893.97;5089753;28;20044;-66
2022/03/23 09:34:55;;;;;;;13.80;10.25;;;;;;;19.24;21.47;102895.25;5089172;28;20047;-67
2022/03/23 09:40:08;;;;;;;10.87;8.00;;;;;;;19.61;21.45;102878.88;5087982;28;20047;-65
2022/03/23 09:42:35;;;;;;;13.35;7.97;;;;;;;19.65;22.70;102875.91;5089842;28;20052;-65
2022/03/23 09:45:02;;;;;;;13.90;10.02;;;;;;;19.58;22.42;102882.59;5088527;28;20040;-64
2022/03/23 09:47:30;;;;;;;15.05;9.90;;;;;;;19.87;21.63;102874.63;5087806;28;20075;-63
2022/03/23 09:49:57;;;;;;;19.38;9.98;;;;;;;20.03;21.39;102863.88;5085924;28;20043;-65
2022/03/23 09:52:23;;;;;;;18.15;10.88;;;;;;;20.12;20.94;102868.59;5089503;28;20075;-66
2022/03/23 09:54:54;;;;;;;16.33;10.95;;;;;;;20.32;20.56;102864.66;5089100;28;20044;-64
2022/03/23 09:57:20;;;;;;;14.90;11.13;;;;;;;20.56;19.92;102854.22;5089438;28;20040;-66
2022/03/23 09:59:47;;;;;;;21.10;13.00;;;;;;;20.63;20.13;102852.00;5088156;28;20098;-67
2022/03/23 10:02:58;;;;;;;18.48;11.73;;;;;;;20.87;19.80;102852.22;5089233;28;20036;-64
2022/03/23 10:05:27;;;;;;;16.92;11.77;;;;;;;21.05;19.80;102843.91;5038649;28;20054;-68
2022/03/23 10:08:07;;;;;;;17.77;11.70;;;;;;;21.08;19.72;102841.06;5088595;28;20054;-64
2022/03/23 10:11:12;;;;;;;15.02;10.82;;;;;;;21.12;19.29;102842.53;5086333;28;20048;-64
2022/03/23 10:14:16;;;;;;;12.98;11.30;;;;;;;21.29;19.16;102827.19;5007525;28;20046;-70
2022/03/23 10:17:13;;;;;;;13.18;10.75;;;;;;;21.51;18.54;102829.22;5088228;28;20112;-71
2022/03/23 10:19:44;;;;;;;13.40;11.18;;;;;;;21.67;18.51;102835.22;5087595;28;20079;-65
2022/03/23 10:22:14;;;;;;;14.90;11.00;;;;;;;21.77;18.24;102827.38;5085931;28;20519;-65
2022/03/23 10:24:41;;;;;;;17.05;11.40;;;;;;;21.71;18.24;102833.16;5089446;28;20480;-65
2022/03/23 10:27:22;;;;;;;16.02;11.07;;;;;;;21.82;18.35;102821.72;5088383;28;20090;-68
2022/03/23 10:29:54;;;;;;;14.48;10.57;;;;;;;21.95;18.11;102825.22;5088299;28;20037;-66
2022/03/23 10:32:21;;;;;;;14.52;10.85;;;;;;;22.19;17.67;102824.38;5087897;28;20217;-63
2022/03/23 10:34:53;;;;;;;13.98;10.57;;;;;;;22.24;17.57;102824.06;5088789;28;20416;-66
2022/03/23 10:37:31;;;;;;;13.05;9.85;;;;;;;22.46;17.18;102824.22;5088783;28;20102;-65
2022/03/23 10:40:00;;;;;;;13.43;10.27;;;;;;;22.46;16.74;102807.28;5080634;28;20047;-65
2022/03/23 10:42:30;;;;;;;16.98;9.93;;;;;;;22.74;16.36;102802.53;5088267;28;20105;-71
2022/03/23 10:45:08;;;;;;;17.05;9.98;;;;;;;22.93;16.46;102800.19;5086329;28;20109;-66
2022/03/23 10:47:37;;;;;;;11.98;10.10;;;;;;;22.99;16.56;102797.03;5088699;28;20036;-65
2022/03/23 10:50:10;;;;;;;12.32;9.32;;;;;;;23.10;16.11;102795.34;5084559;28;20843;-69
2022/03/23 10:53:07;;;;;;;12.68;9.00;;;;;;;23.36;16.17;102789.78;5074908;28;20078;-70
2022/03/23 10:55:50;;;;;;;15.38;10.13;;;;;;;23.47;15.95;102782.59;5071954;28;20102;-67
2022/03/23 10:58:22;;;;;;;12.40;9.38;;;;;;;23.63;15.85;102774.19;5085569;28;20080;-70
2022/03/23 11:00:50;;;;;;;11.23;9.70;;;;;;;23.74;15.61;102775.16;5087586;28;20060;-68
2022/03/23 11:03:17;;;;;;;11.38;9.73;;;;;;;23.78;15.58;102773.91;5086729;28;20552;-72
2022/03/23 11:05:47;;;;;;;16.38;9.23;;;;;;;23.90;15.86;102777.44;5088485;28;20492;-65
2022/03/23 11:08:23;;;;;;;10.20;8.60;;;;;;;23.88;15.36;102771.34;5087939;28;20093;-65
2022/03/23 11:16:48;;;;;;;12.02;9.50;;;;;;;24.42;14.80;102764.25;4996479;28;20050;-65
2022/03/23 11:19:18;;;;;;;10.57;8.13;;;;;;;24.51;14.25;102762.63;4994958;28;20053;-65
2022/03/23 11:22:05;;;;;;;10.18;7.93;;;;;;;24.63;14.14;102753.50;5024740;28;20045;-70
2022/03/23 11:24:41;;;;;;;10.02;8.93;;;;;;;24.78;13.93;102754.94;5047209;28;20060;-64
2022/03/23 11:27:11;;;;;;;13.75;9.55;;;;;;;24.74;14.10;102752.66;5048182;28;20553;-65
2022/03/23 11:29:39;;;;;;;12.35;9.18;;;;;;;24.76;14.17;102742.63;5043543;28;20052;-65
2022/03/23 11:32:28;;;;;;;10.93;8.75;;;;;;;24.94;14.19;102732.13;5043942;28;20090;-64
2022/03/23 11:34:57;;;;;;;11.20;8.07;;;;;;;25.00;14.61;102733.41;5044895;28;20056;-64
2022/03/23 11:37:27;;;;;;;15.20;8.95;;;;;;;25.05;14.52;102728.50;5047736;28;20049;-64